sensor_id;sensor_type;location;lat;lon;timestamp;P1;durP1;ratioP1;P2;durP2;ratioP2
15106;SDS011;7654;45.308;-75.096;2022-10-31T00:00:32;0.50;;;0.50;;
15106;SDS011;7654;45.308;-75.096;2022-10-31T00:03:03;0.50;;;0.50;;
15106;SDS011;7654;45.308;-75.096;2022-10-31T00:05:33;0.50;;;0.50;;
15106;SDS011;7654;45.308;-75.096;2022-10-31T00:08:03;0.57;;;0.57;;
15106;SDS011;7654;45.308;-75.096;2022-10-31T00:10:37;0.50;;;0.50;;
15106;SDS011;7654;45.308;-75.096;2022-10-31T00:13:09;0.60;;;0.60;;
15106;SDS011;7654;45.308;-75.096;2022-10-31T00:15:42;0.50;;;0.50;;
15106;SDS011;7654;45.308;-75.096;2022-10-31T00:18:12;0.50;;;0.50;;
15106;SDS011;7654;45.308;-75.096;2022-10-31T00:20:43;0.50;;;0.50;;
15106;SDS011;7654;45.308;-75.096;2022-10-31T00:23:14;0.50;;;0.50;;
15106;SDS011;7654;45.308;-75.096;2022-10-31T00:25:44;0.50;;;0.50;;
15106;SDS011;7654;45.308;-75.096;2022-10-31T00:28:16;0.50;;;0.50;;
15106;SDS011;7654;45.308;-75.096;2022-10-31T00:30:46;0.50;;;0.50;;
15106;SDS011;7654;45.308;-75.096;2022-10-31T00:33:18;0.50;;;0.50;;
15106;SDS011;7654;45.308;-75.096;2022-10-31T00:35:49;0.40;;;0.40;;
15106;SDS011;7654;45.308;-75.096;2022-10-31T00:38:19;0.50;;;0.50;;
15106;SDS011;7654;45.308;-75.096;2022-10-31T00:40:50;0.40;;;0.40;;
15106;SDS011;7654;45.308;-75.096;2022-10-31T00:43:21;0.50;;;0.50;;
15106;SDS011;7654;45.308;-75.096;2022-10-31T00:45:52;0.50;;;0.50;;
15106;SDS011;7654;45.308;-75.096;2022-10-31T00:48:22;0.50;;;0.50;;
15106;SDS011;7654;45.308;-75.096;2022-10-31T00:50:52;0.50;;;0.50;;
15106;SDS011;7654;45.308;-75.096;2022-10-31T00:53:23;0.50;;;0.50;;
15106;SDS011;7654;45.308;-75.096;2022-10-31T00:55:53;0.50;;;0.50;;
15106;SDS011;7654;45.308;-75.096;2022-10-31T00:58:25;0.50;;;0.50;;
15106;SDS011;7654;45.308;-75.096;2022-10-31T01:00:55;0.50;;;0.50;;
15106;SDS011;7654;45.308;-75.096;2022-10-31T01:03:26;0.50;;;0.50;;
15106;SDS011;7654;45.308;-75.096;2022-10-31T01:05:59;0.40;;;0.40;;
15106;SDS011;7654;45.308;-75.096;2022-10-31T01:08:31;0.50;;;0.50;;
15106;SDS011;7654;45.308;-75.096;2022-10-31T01:11:02;0.50;;;0.50;;
15106;SDS011;7654;45.308;-75.096;2022-10-31T01:13:37;0.40;;;0.40;;
15106;SDS011;7654;45.308;-75.096;2022-10-31T01:16:10;0.40;;;0.40;;
15106;SDS011;7654;45.308;-75.096;2022-10-31T01:18:41;0.50;;;0.50;;
15106;SDS011;7654;45.308;-75.096;2022-10-31T01:21:15;0.50;;;0.50;;
15106;SDS011;7654;45.308;-75.096;2022-10-31T01:23:47;0.53;;;0.53;;
15106;SDS011;7654;45.308;-75.096;2022-10-31T01:26:18;0.50;;;0.50;;
15106;SDS011;7654;45.308;-75.096;2022-10-31T01:28:51;0.50;;;0.50;;
15106;SDS011;7654;45.308;-75.096;2022-10-31T01:31:23;0.40;;;0.40;;
15106;SDS011;7654;45.308;-75.096;2022-10-31T01:33:56;0.50;;;0.50;;
15106;SDS011;7654;45.308;-75.096;2022-10-31T01:36:27;0.50;;;0.50;;
15106;SDS011;7654;45.308;-75.096;2022-10-31T01:39:00;0.50;;;0.50;;
15106;SDS011;7654;45.308;-75.096;2022-10-31T01:41:33;0.50;;;0.50;;
15106;SDS011;7654;45.308;-75.096;2022-10-31T01:47:13;0.50;;;0.50;;
15106;SDS011;7654;45.308;-75.096;2022-10-31T01:49:46;0.57;;;0.57;;
15106;SDS011;7654;45.308;-75.096;2022-10-31T01:52:20;0.50;;;0.50;;
15106;SDS011;7654;45.308;-75.096;2022-10-31T01:54:54;0.50;;;0.50;;
15106;SDS011;7654;45.308;-75.096;2022-10-31T01:57:27;0.50;;;0.50;;
15106;SDS011;7654;45.308;-75.096;2022-10-31T02:00:01;0.50;;;0.50;;
15106;SDS011;7654;45.308;-75.096;2022-10-31T02:02:34;0.50;;;0.50;;
15106;SDS011;7654;45.308;-75.096;2022-10-31T02:05:05;0.50;;;0.50;;
15106;SDS011;7654;45.308;-75.096;2022-10-31T02:07:39;0.50;;;0.50;;
15106;SDS011;7654;45.308;-75.096;2022-10-31T02:10:12;0.40;;;0.40;;
15106;SDS011;7654;45.308;-75.096;2022-10-31T02:12:42;0.60;;;0.60;;
15106;SDS011;7654;45.308;-75.096;2022-10-31T02:15:14;0.50;;;0.50;;
15106;SDS011;7654;45.308;-75.096;2022-10-31T02:17:46;0.47;;;0.47;;
15106;SDS011;7654;45.308;-75.096;2022-10-31T02:20:17;0.50;;;0.50;;
15106;SDS011;7654;45.308;-75.096;2022-10-31T02:22:57;0.50;;;0.50;;
15106;SDS011;7654;45.308;-75.096;2022-10-31T02:25:51;0.50;;;0.50;;
15106;SDS011;7654;45.308;-75.096;2022-10-31T02:28:59;0.50;;;0.50;;
15106;SDS011;7654;45.308;-75.096;2022-10-31T02:31:45;0.50;;;0.50;;
15106;SDS011;7654;45.308;-75.096;2022-10-31T02:34:20;0.50;;;0.50;;
15106;SDS011;7654;45.308;-75.096;2022-10-31T02:36:54;0.50;;;0.50;;
15106;SDS011;7654;45.308;-75.096;2022-10-31T02:39:29;0.53;;;0.53;;
15106;SDS011;7654;45.308;-75.096;2022-10-31T02:42:07;0.57;;;0.57;;
15106;SDS011;7654;45.308;-75.096;2022-10-31T02:44:43;0.50;;;0.50;;
15106;SDS011;7654;45.308;-75.096;2022-10-31T02:47:21;0.50;;;0.50;;
15106;SDS011;7654;45.308;-75.096;2022-10-31T02:49:55;0.57;;;0.57;;
15106;SDS011;7654;45.308;-75.096;2022-10-31T02:52:29;0.60;;;0.60;;
15106;SDS011;7654;45.308;-75.096;2022-10-31T02:55:08;0.50;;;0.50;;
15106;SDS011;7654;45.308;-75.096;2022-10-31T02:57:39;0.60;;;0.60;;
15106;SDS011;7654;45.308;-75.096;2022-10-31T03:00:11;0.40;;;0.40;;
15106;SDS011;7654;45.308;-75.096;2022-10-31T03:02:45;0.47;;;0.47;;
15106;SDS011;7654;45.308;-75.096;2022-10-31T03:05:32;0.50;;;0.50;;
15106;SDS011;7654;45.308;-75.096;2022-10-31T03:08:12;0.60;;;0.60;;
15106;SDS011;7654;45.308;-75.096;2022-10-31T03:10:51;0.60;;;0.60;;
15106;SDS011;7654;45.308;-75.096;2022-10-31T03:13:28;0.50;;;0.50;;
15106;SDS011;7654;45.308;-75.096;2022-10-31T03:16:05;0.50;;;0.50;;
15106;SDS011;7654;45.308;-75.096;2022-10-31T03:18:40;0.60;;;0.60;;
15106;SDS011;7654;45.308;-75.096;2022-10-31T03:21:19;0.50;;;0.50;;
15106;SDS011;7654;45.308;-75.096;2022-10-31T03:23:54;0.53;;;0.53;;
15106;SDS011;7654;45.308;-75.096;2022-10-31T03:26:25;0.60;;;0.60;;
15106;SDS011;7654;45.308;-75.096;2022-10-31T03:28:57;0.50;;;0.50;;
15106;SDS011;7654;45.308;-75.096;2022-10-31T03:31:37;0.50;;;0.50;;
15106;SDS011;7654;45.308;-75.096;2022-10-31T03:34:13;0.50;;;0.50;;
15106;SDS011;7654;45.308;-75.096;2022-10-31T03:36:47;0.60;;;0.60;;
15106;SDS011;7654;45.308;-75.096;2022-10-31T03:39:20;0.50;;;0.50;;
15106;SDS011;7654;45.308;-75.096;2022-10-31T03:41:53;0.50;;;0.50;;
15106;SDS011;7654;45.308;-75.096;2022-10-31T03:44:26;0.40;;;0.40;;
15106;SDS011;7654;45.308;-75.096;2022-10-31T03:46:58;0.53;;;0.53;;
15106;SDS011;7654;45.308;-75.096;2022-10-31T03:49:31;0.60;;;0.60;;
15106;SDS011;7654;45.308;-75.096;2022-10-31T03:52:06;0.60;;;0.60;;
15106;SDS011;7654;45.308;-75.096;2022-10-31T03:54:43;0.50;;;0.50;;
15106;SDS011;7654;45.308;-75.096;2022-10-31T03:57:14;0.50;;;0.50;;
15106;SDS011;7654;45.308;-75.096;2022-10-31T03:59:51;0.50;;;0.50;;
15106;SDS011;7654;45.308;-75.096;2022-10-31T04:02:26;0.50;;;0.50;;
15106;SDS011;7654;45.308;-75.096;2022-10-31T04:05:01;0.50;;;0.50;;
15106;SDS011;7654;45.308;-75.096;2022-10-31T04:07:33;0.50;;;0.50;;
15106;SDS011;7654;45.308;-75.096;2022-10-31T04:10:06;0.60;;;0.60;;
15106;SDS011;7654;45.308;-75.096;2022-10-31T04:12:40;0.50;;;0.50;;
15106;SDS011;7654;45.308;-75.096;2022-10-31T04:15:15;0.50;;;0.50;;
15106;SDS011;7654;45.308;-75.096;2022-10-31T04:17:46;0.57;;;0.57;;
15106;SDS011;7654;45.308;-75.096;2022-10-31T04:20:28;0.50;;;0.50;;
15106;SDS011;7654;45.308;-75.096;2022-10-31T04:23:00;0.50;;;0.50;;
15106;SDS011;7654;45.308;-75.096;2022-10-31T04:25:30;0.60;;;0.60;;
15106;SDS011;7654;45.308;-75.096;2022-10-31T04:28:00;0.50;;;0.50;;
15106;SDS011;7654;45.308;-75.096;2022-10-31T04:30:31;0.53;;;0.53;;
15106;SDS011;7654;45.308;-75.096;2022-10-31T04:33:01;0.60;;;0.60;;
15106;SDS011;7654;45.308;-75.096;2022-10-31T04:35:33;0.50;;;0.50;;
15106;SDS011;7654;45.308;-75.096;2022-10-31T04:38:03;0.50;;;0.50;;
15106;SDS011;7654;45.308;-75.096;2022-10-31T04:40:33;0.60;;;0.60;;
15106;SDS011;7654;45.308;-75.096;2022-10-31T04:43:04;0.60;;;0.60;;
15106;SDS011;7654;45.308;-75.096;2022-10-31T04:45:34;0.50;;;0.50;;
15106;SDS011;7654;45.308;-75.096;2022-10-31T04:48:04;0.53;;;0.53;;
15106;SDS011;7654;45.308;-75.096;2022-10-31T04:52:51;0.47;;;0.47;;
15106;SDS011;7654;45.308;-75.096;2022-10-31T04:55:21;0.50;;;0.50;;
15106;SDS011;7654;45.308;-75.096;2022-10-31T04:57:51;0.47;;;0.47;;
15106;SDS011;7654;45.308;-75.096;2022-10-31T05:00:22;0.43;;;0.43;;
15106;SDS011;7654;45.308;-75.096;2022-10-31T05:02:53;0.50;;;0.50;;
15106;SDS011;7654;45.308;-75.096;2022-10-31T05:05:27;0.50;;;0.50;;
15106;SDS011;7654;45.308;-75.096;2022-10-31T05:08:01;0.50;;;0.50;;
15106;SDS011;7654;45.308;-75.096;2022-10-31T05:10:31;0.50;;;0.50;;
15106;SDS011;7654;45.308;-75.096;2022-10-31T05:13:02;0.50;;;0.50;;
15106;SDS011;7654;45.308;-75.096;2022-10-31T05:15:33;0.50;;;0.50;;
15106;SDS011;7654;45.308;-75.096;2022-10-31T05:18:03;0.50;;;0.50;;
15106;SDS011;7654;45.308;-75.096;2022-10-31T05:20:34;0.50;;;0.50;;
15106;SDS011;7654;45.308;-75.096;2022-10-31T05:23:05;0.60;;;0.60;;
15106;SDS011;7654;45.308;-75.096;2022-10-31T05:25:35;0.50;;;0.50;;
15106;SDS011;7654;45.308;-75.096;2022-10-31T05:28:06;0.50;;;0.50;;
15106;SDS011;7654;45.308;-75.096;2022-10-31T05:30:37;0.50;;;0.50;;
15106;SDS011;7654;45.308;-75.096;2022-10-31T05:33:07;0.50;;;0.50;;
15106;SDS011;7654;45.308;-75.096;2022-10-31T05:35:37;0.60;;;0.60;;
15106;SDS011;7654;45.308;-75.096;2022-10-31T05:38:09;0.50;;;0.50;;
15106;SDS011;7654;45.308;-75.096;2022-10-31T05:40:39;0.50;;;0.50;;
15106;SDS011;7654;45.308;-75.096;2022-10-31T05:43:09;0.40;;;0.40;;
15106;SDS011;7654;45.308;-75.096;2022-10-31T05:45:40;0.50;;;0.50;;
15106;SDS011;7654;45.308;-75.096;2022-10-31T05:48:12;0.53;;;0.53;;
15106;SDS011;7654;45.308;-75.096;2022-10-31T05:50:43;0.50;;;0.50;;
15106;SDS011;7654;45.308;-75.096;2022-10-31T05:53:15;0.50;;;0.50;;
15106;SDS011;7654;45.308;-75.096;2022-10-31T05:55:46;0.50;;;0.50;;
15106;SDS011;7654;45.308;-75.096;2022-10-31T05:58:16;0.50;;;0.50;;
15106;SDS011;7654;45.308;-75.096;2022-10-31T06:00:46;0.50;;;0.50;;
15106;SDS011;7654;45.308;-75.096;2022-10-31T06:03:16;0.50;;;0.50;;
15106;SDS011;7654;45.308;-75.096;2022-10-31T06:05:46;0.50;;;0.50;;
15106;SDS011;7654;45.308;-75.096;2022-10-31T06:08:22;0.57;;;0.57;;
15106;SDS011;7654;45.308;-75.096;2022-10-31T06:10:52;0.50;;;0.50;;
15106;SDS011;7654;45.308;-75.096;2022-10-31T06:13:23;0.50;;;0.50;;
15106;SDS011;7654;45.308;-75.096;2022-10-31T06:15:53;0.60;;;0.60;;
15106;SDS011;7654;45.308;-75.096;2022-10-31T06:18:23;0.50;;;0.50;;
15106;SDS011;7654;45.308;-75.096;2022-10-31T06:20:53;0.50;;;0.50;;
15106;SDS011;7654;45.308;-75.096;2022-10-31T06:23:25;0.50;;;0.50;;
15106;SDS011;7654;45.308;-75.096;2022-10-31T06:25:55;0.50;;;0.50;;
15106;SDS011;7654;45.308;-75.096;2022-10-31T06:28:25;0.50;;;0.50;;
15106;SDS011;7654;45.308;-75.096;2022-10-31T06:30:56;0.50;;;0.50;;
15106;SDS011;7654;45.308;-75.096;2022-10-31T06:33:26;0.60;;;0.60;;
15106;SDS011;7654;45.308;-75.096;2022-10-31T06:35:56;0.60;;;0.60;;
15106;SDS011;7654;45.308;-75.096;2022-10-31T06:38:28;0.60;;;0.60;;
15106;SDS011;7654;45.308;-75.096;2022-10-31T06:41:01;0.50;;;0.50;;
15106;SDS011;7654;45.308;-75.096;2022-10-31T06:43:32;0.50;;;0.50;;
15106;SDS011;7654;45.308;-75.096;2022-10-31T06:46:02;0.60;;;0.60;;
15106;SDS011;7654;45.308;-75.096;2022-10-31T06:48:33;0.40;;;0.40;;
15106;SDS011;7654;45.308;-75.096;2022-10-31T06:51:04;0.50;;;0.50;;
15106;SDS011;7654;45.308;-75.096;2022-10-31T06:53:36;0.50;;;0.50;;
15106;SDS011;7654;45.308;-75.096;2022-10-31T06:56:06;0.50;;;0.50;;
15106;SDS011;7654;45.308;-75.096;2022-10-31T06:58:37;0.50;;;0.50;;
15106;SDS011;7654;45.308;-75.096;2022-10-31T07:01:09;0.50;;;0.50;;
15106;SDS011;7654;45.308;-75.096;2022-10-31T07:03:40;0.50;;;0.50;;
15106;SDS011;7654;45.308;-75.096;2022-10-31T07:06:10;0.50;;;0.50;;
15106;SDS011;7654;45.308;-75.096;2022-10-31T07:08:42;0.60;;;0.60;;
15106;SDS011;7654;45.308;-75.096;2022-10-31T07:11:12;0.47;;;0.47;;
15106;SDS011;7654;45.308;-75.096;2022-10-31T07:13:42;0.50;;;0.50;;
15106;SDS011;7654;45.308;-75.096;2022-10-31T07:16:13;0.50;;;0.50;;
15106;SDS011;7654;45.308;-75.096;2022-10-31T07:18:43;0.50;;;0.50;;
15106;SDS011;7654;45.308;-75.096;2022-10-31T07:21:13;0.50;;;0.50;;
15106;SDS011;7654;45.308;-75.096;2022-10-31T07:23:46;0.40;;;0.40;;
15106;SDS011;7654;45.308;-75.096;2022-10-31T07:26:17;0.60;;;0.60;;
15106;SDS011;7654;45.308;-75.096;2022-10-31T07:28:47;0.50;;;0.50;;
15106;SDS011;7654;45.308;-75.096;2022-10-31T07:31:17;0.40;;;0.40;;
15106;SDS011;7654;45.308;-75.096;2022-10-31T07:33:48;0.60;;;0.60;;
15106;SDS011;7654;45.308;-75.096;2022-10-31T07:36:19;0.50;;;0.50;;
15106;SDS011;7654;45.308;-75.096;2022-10-31T07:38:51;0.50;;;0.50;;
15106;SDS011;7654;45.308;-75.096;2022-10-31T07:41:22;0.50;;;0.50;;
15106;SDS011;7654;45.308;-75.096;2022-10-31T07:43:52;0.60;;;0.60;;
15106;SDS011;7654;45.308;-75.096;2022-10-31T07:46:22;0.60;;;0.60;;
15106;SDS011;7654;45.308;-75.096;2022-10-31T07:48:53;0.50;;;0.50;;
15106;SDS011;7654;45.308;-75.096;2022-10-31T07:51:23;0.50;;;0.50;;
15106;SDS011;7654;45.308;-75.096;2022-10-31T07:53:55;0.50;;;0.50;;
15106;SDS011;7654;45.308;-75.096;2022-10-31T07:56:25;0.50;;;0.50;;
15106;SDS011;7654;45.308;-75.096;2022-10-31T07:58:55;0.40;;;0.40;;
15106;SDS011;7654;45.308;-75.096;2022-10-31T08:01:25;0.50;;;0.50;;
15106;SDS011;7654;45.308;-75.096;2022-10-31T08:03:56;0.50;;;0.50;;
15106;SDS011;7654;45.308;-75.096;2022-10-31T08:06:26;0.60;;;0.60;;
15106;SDS011;7654;45.308;-75.096;2022-10-31T08:08:58;0.50;;;0.50;;
15106;SDS011;7654;45.308;-75.096;2022-10-31T08:11:28;0.60;;;0.60;;
15106;SDS011;7654;45.308;-75.096;2022-10-31T08:13:58;0.60;;;0.60;;
15106;SDS011;7654;45.308;-75.096;2022-10-31T08:16:28;0.50;;;0.50;;
15106;SDS011;7654;45.308;-75.096;2022-10-31T08:18:58;0.50;;;0.50;;
15106;SDS011;7654;45.308;-75.096;2022-10-31T08:21:29;0.60;;;0.60;;
15106;SDS011;7654;45.308;-75.096;2022-10-31T08:24:01;0.50;;;0.50;;
15106;SDS011;7654;45.308;-75.096;2022-10-31T08:26:31;0.50;;;0.50;;
15106;SDS011;7654;45.308;-75.096;2022-10-31T08:29:01;0.50;;;0.50;;
15106;SDS011;7654;45.308;-75.096;2022-10-31T08:31:32;0.50;;;0.50;;
15106;SDS011;7654;45.308;-75.096;2022-10-31T08:34:08;0.50;;;0.50;;
15106;SDS011;7654;45.308;-75.096;2022-10-31T08:36:38;0.60;;;0.60;;
15106;SDS011;7654;45.308;-75.096;2022-10-31T08:39:12;0.50;;;0.50;;
15106;SDS011;7654;45.308;-75.096;2022-10-31T08:41:42;0.50;;;0.50;;
15106;SDS011;7654;45.308;-75.096;2022-10-31T08:44:12;0.50;;;0.50;;
15106;SDS011;7654;45.308;-75.096;2022-10-31T08:46:42;0.60;;;0.60;;
15106;SDS011;7654;45.308;-75.096;2022-10-31T08:49:13;0.50;;;0.50;;
15106;SDS011;7654;45.308;-75.096;2022-10-31T08:51:43;0.50;;;0.50;;
15106;SDS011;7654;45.308;-75.096;2022-10-31T08:54:18;0.60;;;0.60;;
15106;SDS011;7654;45.308;-75.096;2022-10-31T08:56:48;0.53;;;0.53;;
15106;SDS011;7654;45.308;-75.096;2022-10-31T08:59:24;0.60;;;0.60;;
15106;SDS011;7654;45.308;-75.096;2022-10-31T09:01:54;0.50;;;0.50;;
15106;SDS011;7654;45.308;-75.096;2022-10-31T09:04:25;0.50;;;0.50;;
15106;SDS011;7654;45.308;-75.096;2022-10-31T09:06:55;0.53;;;0.53;;
15106;SDS011;7654;45.308;-75.096;2022-10-31T09:09:46;0.50;;;0.50;;
15106;SDS011;7654;45.308;-75.096;2022-10-31T09:12:17;0.70;;;0.70;;
15106;SDS011;7654;45.308;-75.096;2022-10-31T09:14:47;0.60;;;0.60;;
15106;SDS011;7654;45.308;-75.096;2022-10-31T09:17:17;0.60;;;0.60;;
15106;SDS011;7654;45.308;-75.096;2022-10-31T09:19:47;0.50;;;0.50;;
15106;SDS011;7654;45.308;-75.096;2022-10-31T09:22:17;0.60;;;0.60;;
15106;SDS011;7654;45.308;-75.096;2022-10-31T09:24:49;0.50;;;0.50;;
15106;SDS011;7654;45.308;-75.096;2022-10-31T09:27:19;0.50;;;0.50;;
15106;SDS011;7654;45.308;-75.096;2022-10-31T09:29:49;0.60;;;0.60;;
15106;SDS011;7654;45.308;-75.096;2022-10-31T09:32:19;0.50;;;0.50;;
15106;SDS011;7654;45.308;-75.096;2022-10-31T09:34:50;0.60;;;0.60;;
15106;SDS011;7654;45.308;-75.096;2022-10-31T09:37:20;0.50;;;0.50;;
15106;SDS011;7654;45.308;-75.096;2022-10-31T09:39:51;0.50;;;0.50;;
15106;SDS011;7654;45.308;-75.096;2022-10-31T09:42:40;0.50;;;0.50;;
15106;SDS011;7654;45.308;-75.096;2022-10-31T09:45:26;0.53;;;0.53;;
15106;SDS011;7654;45.308;-75.096;2022-10-31T09:48:08;0.60;;;0.60;;
15106;SDS011;7654;45.308;-75.096;2022-10-31T09:50:45;0.50;;;0.50;;
15106;SDS011;7654;45.308;-75.096;2022-10-31T09:53:22;0.50;;;0.50;;
15106;SDS011;7654;45.308;-75.096;2022-10-31T09:55:57;0.50;;;0.50;;
15106;SDS011;7654;45.308;-75.096;2022-10-31T09:58:28;0.50;;;0.50;;
15106;SDS011;7654;45.308;-75.096;2022-10-31T10:01:03;0.60;;;0.60;;
15106;SDS011;7654;45.308;-75.096;2022-10-31T10:03:35;0.50;;;0.50;;
15106;SDS011;7654;45.308;-75.096;2022-10-31T10:06:11;0.50;;;0.50;;
15106;SDS011;7654;45.308;-75.096;2022-10-31T10:08:45;0.50;;;0.50;;
15106;SDS011;7654;45.308;-75.096;2022-10-31T10:11:21;0.50;;;0.50;;
15106;SDS011;7654;45.308;-75.096;2022-10-31T10:14:05;0.60;;;0.60;;
15106;SDS011;7654;45.308;-75.096;2022-10-31T10:16:47;0.50;;;0.50;;
15106;SDS011;7654;45.308;-75.096;2022-10-31T10:19:28;0.60;;;0.60;;
15106;SDS011;7654;45.308;-75.096;2022-10-31T10:22:09;0.50;;;0.50;;
15106;SDS011;7654;45.308;-75.096;2022-10-31T10:24:51;0.60;;;0.60;;
15106;SDS011;7654;45.308;-75.096;2022-10-31T10:27:35;0.50;;;0.50;;
15106;SDS011;7654;45.308;-75.096;2022-10-31T10:30:14;0.57;;;0.57;;
15106;SDS011;7654;45.308;-75.096;2022-10-31T10:32:46;0.60;;;0.60;;
15106;SDS011;7654;45.308;-75.096;2022-10-31T10:35:20;0.50;;;0.50;;
15106;SDS011;7654;45.308;-75.096;2022-10-31T10:40:32;0.50;;;0.50;;
15106;SDS011;7654;45.308;-75.096;2022-10-31T10:43:10;0.50;;;0.50;;
15106;SDS011;7654;45.308;-75.096;2022-10-31T10:45:53;0.60;;;0.60;;
15106;SDS011;7654;45.308;-75.096;2022-10-31T10:51:51;0.50;;;0.50;;
15106;SDS011;7654;45.308;-75.096;2022-10-31T10:54:54;0.60;;;0.60;;
15106;SDS011;7654;45.308;-75.096;2022-10-31T11:00:27;0.60;;;0.60;;
15106;SDS011;7654;45.308;-75.096;2022-10-31T11:03:00;0.50;;;0.50;;
15106;SDS011;7654;45.308;-75.096;2022-10-31T11:10:44;0.50;;;0.50;;
15106;SDS011;7654;45.308;-75.096;2022-10-31T11:13:19;0.50;;;0.50;;
15106;SDS011;7654;45.308;-75.096;2022-10-31T11:15:56;0.50;;;0.50;;
15106;SDS011;7654;45.308;-75.096;2022-10-31T11:18:29;0.50;;;0.50;;
15106;SDS011;7654;45.308;-75.096;2022-10-31T11:21:02;0.50;;;0.50;;
15106;SDS011;7654;45.308;-75.096;2022-10-31T11:23:33;0.60;;;0.60;;
15106;SDS011;7654;45.308;-75.096;2022-10-31T11:26:05;0.50;;;0.50;;
15106;SDS011;7654;45.308;-75.096;2022-10-31T11:28:55;0.50;;;0.50;;
15106;SDS011;7654;45.308;-75.096;2022-10-31T11:31:27;0.50;;;0.50;;
15106;SDS011;7654;45.308;-75.096;2022-10-31T11:33:59;0.50;;;0.50;;
15106;SDS011;7654;45.308;-75.096;2022-10-31T11:36:32;0.50;;;0.50;;
15106;SDS011;7654;45.308;-75.096;2022-10-31T11:39:12;0.50;;;0.50;;
15106;SDS011;7654;45.308;-75.096;2022-10-31T11:41:48;0.60;;;0.60;;
15106;SDS011;7654;45.308;-75.096;2022-10-31T11:44:20;0.50;;;0.50;;
15106;SDS011;7654;45.308;-75.096;2022-10-31T11:46:54;0.47;;;0.47;;
15106;SDS011;7654;45.308;-75.096;2022-10-31T11:49:28;0.60;;;0.60;;
15106;SDS011;7654;45.308;-75.096;2022-10-31T11:52:01;0.50;;;0.50;;
15106;SDS011;7654;45.308;-75.096;2022-10-31T11:54:35;0.50;;;0.50;;
15106;SDS011;7654;45.308;-75.096;2022-10-31T11:57:23;0.60;;;0.60;;
15106;SDS011;7654;45.308;-75.096;2022-10-31T11:59:55;0.50;;;0.50;;
15106;SDS011;7654;45.308;-75.096;2022-10-31T12:02:26;0.50;;;0.50;;
15106;SDS011;7654;45.308;-75.096;2022-10-31T12:04:59;0.50;;;0.50;;
15106;SDS011;7654;45.308;-75.096;2022-10-31T12:07:35;0.50;;;0.50;;
15106;SDS011;7654;45.308;-75.096;2022-10-31T12:10:09;0.50;;;0.50;;
15106;SDS011;7654;45.308;-75.096;2022-10-31T12:12:54;0.50;;;0.50;;
15106;SDS011;7654;45.308;-75.096;2022-10-31T12:15:35;0.50;;;0.50;;
15106;SDS011;7654;45.308;-75.096;2022-10-31T12:21:23;0.43;;;0.43;;
15106;SDS011;7654;45.308;-75.096;2022-10-31T12:24:15;0.50;;;0.50;;
15106;SDS011;7654;45.308;-75.096;2022-10-31T12:26:58;0.50;;;0.50;;
15106;SDS011;7654;45.308;-75.096;2022-10-31T12:29:47;0.53;;;0.53;;
15106;SDS011;7654;45.308;-75.096;2022-10-31T12:35:36;0.50;;;0.50;;
15106;SDS011;7654;45.308;-75.096;2022-10-31T12:38:24;0.50;;;0.50;;
15106;SDS011;7654;45.308;-75.096;2022-10-31T12:41:24;0.50;;;0.50;;
15106;SDS011;7654;45.308;-75.096;2022-10-31T12:44:06;0.50;;;0.50;;
15106;SDS011;7654;45.308;-75.096;2022-10-31T12:49:47;0.50;;;0.50;;
15106;SDS011;7654;45.308;-75.096;2022-10-31T12:52:27;0.50;;;0.50;;
15106;SDS011;7654;45.308;-75.096;2022-10-31T12:55:19;0.50;;;0.50;;
15106;SDS011;7654;45.308;-75.096;2022-10-31T12:58:02;0.40;;;0.40;;
15106;SDS011;7654;45.308;-75.096;2022-10-31T13:00:38;0.50;;;0.50;;
15106;SDS011;7654;45.308;-75.096;2022-10-31T13:03:20;0.50;;;0.50;;
15106;SDS011;7654;45.308;-75.096;2022-10-31T13:05:59;0.50;;;0.50;;
15106;SDS011;7654;45.308;-75.096;2022-10-31T13:08:36;0.40;;;0.40;;
15106;SDS011;7654;45.308;-75.096;2022-10-31T13:11:10;0.50;;;0.50;;
15106;SDS011;7654;45.308;-75.096;2022-10-31T13:13:53;0.50;;;0.50;;
15106;SDS011;7654;45.308;-75.096;2022-10-31T13:16:28;0.40;;;0.40;;
15106;SDS011;7654;45.308;-75.096;2022-10-31T13:19:08;0.50;;;0.50;;
15106;SDS011;7654;45.308;-75.096;2022-10-31T13:21:45;0.50;;;0.50;;
15106;SDS011;7654;45.308;-75.096;2022-10-31T13:24:25;0.40;;;0.40;;
15106;SDS011;7654;45.308;-75.096;2022-10-31T13:27:01;0.50;;;0.50;;
15106;SDS011;7654;45.308;-75.096;2022-10-31T13:29:39;0.40;;;0.40;;
15106;SDS011;7654;45.308;-75.096;2022-10-31T13:32:19;0.50;;;0.50;;
15106;SDS011;7654;45.308;-75.096;2022-10-31T13:34:52;0.50;;;0.50;;
15106;SDS011;7654;45.308;-75.096;2022-10-31T13:37:27;0.47;;;0.47;;
15106;SDS011;7654;45.308;-75.096;2022-10-31T13:40:11;0.40;;;0.40;;
15106;SDS011;7654;45.308;-75.096;2022-10-31T13:42:53;0.47;;;0.47;;
15106;SDS011;7654;45.308;-75.096;2022-10-31T13:45:28;0.40;;;0.40;;
15106;SDS011;7654;45.308;-75.096;2022-10-31T13:47:59;0.47;;;0.47;;
15106;SDS011;7654;45.308;-75.096;2022-10-31T13:50:32;0.40;;;0.40;;
15106;SDS011;7654;45.308;-75.096;2022-10-31T13:53:10;0.40;;;0.40;;
15106;SDS011;7654;45.308;-75.096;2022-10-31T13:55:42;0.40;;;0.40;;
15106;SDS011;7654;45.308;-75.096;2022-10-31T13:58:23;0.40;;;0.40;;
15106;SDS011;7654;45.308;-75.096;2022-10-31T14:00:58;0.40;;;0.40;;
15106;SDS011;7654;45.308;-75.096;2022-10-31T14:03:34;0.30;;;0.30;;
15106;SDS011;7654;45.308;-75.096;2022-10-31T14:06:36;0.40;;;0.40;;
15106;SDS011;7654;45.308;-75.096;2022-10-31T14:09:18;0.40;;;0.40;;
15106;SDS011;7654;45.308;-75.096;2022-10-31T14:11:52;0.37;;;0.37;;
15106;SDS011;7654;45.308;-75.096;2022-10-31T14:14:28;0.30;;;0.30;;
15106;SDS011;7654;45.308;-75.096;2022-10-31T14:17:02;0.30;;;0.30;;
15106;SDS011;7654;45.308;-75.096;2022-10-31T14:19:33;0.30;;;0.30;;
15106;SDS011;7654;45.308;-75.096;2022-10-31T14:22:18;0.40;;;0.40;;
15106;SDS011;7654;45.308;-75.096;2022-10-31T14:24:49;0.40;;;0.40;;
15106;SDS011;7654;45.308;-75.096;2022-10-31T14:27:43;0.40;;;0.40;;
15106;SDS011;7654;45.308;-75.096;2022-10-31T14:30:16;0.30;;;0.30;;
15106;SDS011;7654;45.308;-75.096;2022-10-31T14:32:50;0.30;;;0.30;;
15106;SDS011;7654;45.308;-75.096;2022-10-31T14:35:23;0.30;;;0.30;;
15106;SDS011;7654;45.308;-75.096;2022-10-31T14:41:15;0.30;;;0.30;;
15106;SDS011;7654;45.308;-75.096;2022-10-31T14:44:07;0.30;;;0.30;;
15106;SDS011;7654;45.308;-75.096;2022-10-31T14:47:00;0.40;;;0.40;;
15106;SDS011;7654;45.308;-75.096;2022-10-31T14:49:48;0.37;;;0.37;;
15106;SDS011;7654;45.308;-75.096;2022-10-31T14:52:34;0.27;;;0.27;;
15106;SDS011;7654;45.308;-75.096;2022-10-31T14:55:10;0.30;;;0.30;;
15106;SDS011;7654;45.308;-75.096;2022-10-31T14:57:45;0.40;;;0.40;;
15106;SDS011;7654;45.308;-75.096;2022-10-31T15:00:18;0.40;;;0.40;;
15106;SDS011;7654;45.308;-75.096;2022-10-31T15:02:52;0.30;;;0.30;;
15106;SDS011;7654;45.308;-75.096;2022-10-31T15:05:41;0.30;;;0.30;;
15106;SDS011;7654;45.308;-75.096;2022-10-31T15:08:27;0.30;;;0.30;;
15106;SDS011;7654;45.308;-75.096;2022-10-31T15:11:13;0.30;;;0.30;;
15106;SDS011;7654;45.308;-75.096;2022-10-31T15:13:45;0.30;;;0.30;;
15106;SDS011;7654;45.308;-75.096;2022-10-31T15:16:17;0.30;;;0.30;;
15106;SDS011;7654;45.308;-75.096;2022-10-31T15:18:52;0.30;;;0.30;;
15106;SDS011;7654;45.308;-75.096;2022-10-31T15:21:24;0.40;;;0.40;;
15106;SDS011;7654;45.308;-75.096;2022-10-31T15:23:57;0.30;;;0.30;;
15106;SDS011;7654;45.308;-75.096;2022-10-31T15:26:31;0.30;;;0.30;;
15106;SDS011;7654;45.308;-75.096;2022-10-31T15:29:04;0.40;;;0.40;;
15106;SDS011;7654;45.308;-75.096;2022-10-31T15:31:48;0.30;;;0.30;;
15106;SDS011;7654;45.308;-75.096;2022-10-31T15:34:20;0.33;;;0.33;;
15106;SDS011;7654;45.308;-75.096;2022-10-31T15:36:55;0.30;;;0.30;;
15106;SDS011;7654;45.308;-75.096;2022-10-31T15:39:26;0.30;;;0.30;;
15106;SDS011;7654;45.308;-75.096;2022-10-31T15:41:58;0.30;;;0.30;;
15106;SDS011;7654;45.308;-75.096;2022-10-31T15:44:29;0.30;;;0.30;;
15106;SDS011;7654;45.308;-75.096;2022-10-31T15:47:03;0.30;;;0.30;;